sensor_id;sensor_type;location;lat;lon;timestamp;temperature;humidity
25945;SHT31;13742;49.306;8.636;2023-05-23T00:00:51;19.57;79.66
25945;SHT31;13742;49.306;8.636;2023-05-23T00:01:53;19.52;79.55
25945;SHT31;13742;49.306;8.636;2023-05-23T00:02:51;19.57;79.69
25945;SHT31;13742;49.306;8.636;2023-05-23T00:03:53;19.58;79.17
25945;SHT31;13742;49.306;8.636;2023-05-23T00:04:51;19.59;79.57
25945;SHT31;13742;49.306;8.636;2023-05-23T00:05:51;19.57;79.63
25945;SHT31;13742;49.306;8.636;2023-05-23T00:06:52;19.54;79.68
25945;SHT31;13742;49.306;8.636;2023-05-23T00:07:51;19.49;79.78
25945;SHT31;13742;49.306;8.636;2023-05-23T00:08:51;19.44;80.10
25945;SHT31;13742;49.306;8.636;2023-05-23T00:09:50;19.45;80.05
25945;SHT31;13742;49.306;8.636;2023-05-23T00:10:51;19.44;80.10
25945;SHT31;13742;49.306;8.636;2023-05-23T00:11:51;19.44;80.12
25945;SHT31;13742;49.306;8.636;2023-05-23T00:12:51;19.42;80.17
25945;SHT31;13742;49.306;8.636;2023-05-23T00:13:54;19.45;79.56
25945;SHT31;13742;49.306;8.636;2023-05-23T00:14:52;19.48;79.25
25945;SHT31;13742;49.306;8.636;2023-05-23T00:15:51;19.52;79.32
25945;SHT31;13742;49.306;8.636;2023-05-23T00:16:51;19.52;79.39
25945;SHT31;13742;49.306;8.636;2023-05-23T00:17:50;19.55;79.22
25945;SHT31;13742;49.306;8.636;2023-05-23T00:18:51;19.54;79.15
25945;SHT31;13742;49.306;8.636;2023-05-23T00:19:51;19.57;79.28
25945;SHT31;13742;49.306;8.636;2023-05-23T00:20:51;19.57;79.20
25945;SHT31;13742;49.306;8.636;2023-05-23T00:21:52;19.58;79.09
25945;SHT31;13742;49.306;8.636;2023-05-23T00:22:51;19.55;79.36
25945;SHT31;13742;49.306;8.636;2023-05-23T00:23:52;19.39;79.89
25945;SHT31;13742;49.306;8.636;2023-05-23T00:24:51;19.20;80.56
25945;SHT31;13742;49.306;8.636;2023-05-23T00:25:51;19.24;80.65
25945;SHT31;13742;49.306;8.636;2023-05-23T00:26:51;19.15;80.99
25945;SHT31;13742;49.306;8.636;2023-05-23T00:27:51;19.13;81.00
25945;SHT31;13742;49.306;8.636;2023-05-23T00:28:51;19.11;80.96
25945;SHT31;13742;49.306;8.636;2023-05-23T00:29:50;19.07;81.04
25945;SHT31;13742;49.306;8.636;2023-05-23T00:30:51;19.07;81.18
25945;SHT31;13742;49.306;8.636;2023-05-23T00:31:51;19.10;80.93
25945;SHT31;13742;49.306;8.636;2023-05-23T00:32:53;19.14;80.67
25945;SHT31;13742;49.306;8.636;2023-05-23T00:33:50;19.11;80.78
25945;SHT31;13742;49.306;8.636;2023-05-23T00:34:53;19.17;80.73
25945;SHT31;13742;49.306;8.636;2023-05-23T00:35:51;19.10;80.69
25945;SHT31;13742;49.306;8.636;2023-05-23T00:36:51;19.08;80.82
25945;SHT31;13742;49.306;8.636;2023-05-23T00:37:51;19.10;80.76
25945;SHT31;13742;49.306;8.636;2023-05-23T00:38:52;19.11;80.77
25945;SHT31;13742;49.306;8.636;2023-05-23T00:39:51;19.15;80.60
25945;SHT31;13742;49.306;8.636;2023-05-23T00:40:51;19.15;80.08
25945;SHT31;13742;49.306;8.636;2023-05-23T00:41:51;19.18;80.30
25945;SHT31;13742;49.306;8.636;2023-05-23T00:42:51;19.21;80.21
25945;SHT31;13742;49.306;8.636;2023-05-23T00:43:51;19.24;80.23
25945;SHT31;13742;49.306;8.636;2023-05-23T00:44:51;19.23;80.25
25945;SHT31;13742;49.306;8.636;2023-05-23T00:45:51;19.18;80.18
25945;SHT31;13742;49.306;8.636;2023-05-23T00:46:53;19.13;80.26
25945;SHT31;13742;49.306;8.636;2023-05-23T00:47:52;19.11;80.57
25945;SHT31;13742;49.306;8.636;2023-05-23T00:48:54;19.14;79.95
25945;SHT31;13742;49.306;8.636;2023-05-23T00:49:50;19.15;79.64
25945;SHT31;13742;49.306;8.636;2023-05-23T00:50:51;19.10;80.17
25945;SHT31;13742;49.306;8.636;2023-05-23T00:51:51;19.06;80.45
25945;SHT31;13742;49.306;8.636;2023-05-23T00:52:50;19.07;80.57
25945;SHT31;13742;49.306;8.636;2023-05-23T00:53:50;19.00;80.56
25945;SHT31;13742;49.306;8.636;2023-05-23T00:54:51;19.03;80.46
25945;SHT31;13742;49.306;8.636;2023-05-23T00:55:51;19.07;80.35
25945;SHT31;13742;49.306;8.636;2023-05-23T00:56:51;19.04;80.17
25945;SHT31;13742;49.306;8.636;2023-05-23T00:57:52;19.01;80.49
25945;SHT31;13742;49.306;8.636;2023-05-23T00:58:51;19.00;80.52
25945;SHT31;13742;49.306;8.636;2023-05-23T00:59:51;19.01;80.43
25945;SHT31;13742;49.306;8.636;2023-05-23T01:00:53;19.03;80.43
25945;SHT31;13742;49.306;8.636;2023-05-23T01:01:53;19.01;80.08
25945;SHT31;13742;49.306;8.636;2023-05-23T01:02:51;19.01;80.40
25945;SHT31;13742;49.306;8.636;2023-05-23T01:03:50;19.01;80.38
25945;SHT31;13742;49.306;8.636;2023-05-23T01:04:54;19.01;80.14
25945;SHT31;13742;49.306;8.636;2023-05-23T01:05:51;19.01;80.03
25945;SHT31;13742;49.306;8.636;2023-05-23T01:06:53;18.94;80.45
25945;SHT31;13742;49.306;8.636;2023-05-23T01:07:51;18.96;80.37
25945;SHT31;13742;49.306;8.636;2023-05-23T01:08:51;19.00;80.17
25945;SHT31;13742;49.306;8.636;2023-05-23T01:09:51;19.00;80.17
25945;SHT31;13742;49.306;8.636;2023-05-23T01:10:51;19.00;80.20
25945;SHT31;13742;49.306;8.636;2023-05-23T01:13:58;18.98;80.15
25945;SHT31;13742;49.306;8.636;2023-05-23T01:15:02;18.98;80.13
25945;SHT31;13742;49.306;8.636;2023-05-23T01:15:58;18.97;79.87
25945;SHT31;13742;49.306;8.636;2023-05-23T01:16:57;18.98;79.87
25945;SHT31;13742;49.306;8.636;2023-05-23T01:17:56;18.98;80.30
25945;SHT31;13742;49.306;8.636;2023-05-23T01:19:58;18.98;79.97
25945;SHT31;13742;49.306;8.636;2023-05-23T01:21:08;18.97;80.03
25945;SHT31;13742;49.306;8.636;2023-05-23T01:21:52;19.00;79.94
25945;SHT31;13742;49.306;8.636;2023-05-23T01:24:56;18.93;79.73
25945;SHT31;13742;49.306;8.636;2023-05-23T01:27:54;18.89;80.47
25945;SHT31;13742;49.306;8.636;2023-05-23T01:28:54;18.90;80.24
25945;SHT31;13742;49.306;8.636;2023-05-23T01:29:55;18.89;80.49
25945;SHT31;13742;49.306;8.636;2023-05-23T01:30:52;18.83;80.54
25945;SHT31;13742;49.306;8.636;2023-05-23T01:31:56;18.82;80.60
25945;SHT31;13742;49.306;8.636;2023-05-23T01:32:53;18.80;80.64
25945;SHT31;13742;49.306;8.636;2023-05-23T01:33:53;18.83;80.54
25945;SHT31;13742;49.306;8.636;2023-05-23T01:34:52;18.82;80.16
25945;SHT31;13742;49.306;8.636;2023-05-23T01:35:50;18.80;80.67
25945;SHT31;13742;49.306;8.636;2023-05-23T01:36:54;18.80;80.66
25945;SHT31;13742;49.306;8.636;2023-05-23T01:37:52;18.75;80.86
25945;SHT31;13742;49.306;8.636;2023-05-23T01:38:50;18.69;81.05
25945;SHT31;13742;49.306;8.636;2023-05-23T01:39:50;18.68;81.23
25945;SHT31;13742;49.306;8.636;2023-05-23T01:40:50;18.69;80.83
25945;SHT31;13742;49.306;8.636;2023-05-23T01:41:51;18.68;80.89
25945;SHT31;13742;49.306;8.636;2023-05-23T01:42:52;18.63;80.98
25945;SHT31;13742;49.306;8.636;2023-05-23T01:43:50;18.62;81.15
25945;SHT31;13742;49.306;8.636;2023-05-23T01:44:51;18.63;81.30
25945;SHT31;13742;49.306;8.636;2023-05-23T01:45:52;18.62;81.25
25945;SHT31;13742;49.306;8.636;2023-05-23T01:46:50;18.59;81.26
25945;SHT31;13742;49.306;8.636;2023-05-23T01:47:51;18.63;80.96
25945;SHT31;13742;49.306;8.636;2023-05-23T01:48:51;18.63;80.96
25945;SHT31;13742;49.306;8.636;2023-05-23T01:49:51;18.60;80.99
25945;SHT31;13742;49.306;8.636;2023-05-23T01:50:51;18.62;80.69
25945;SHT31;13742;49.306;8.636;2023-05-23T01:51:51;18.60;80.47
25945;SHT31;13742;49.306;8.636;2023-05-23T01:52:52;18.59;80.75
25945;SHT31;13742;49.306;8.636;2023-05-23T01:53:51;18.60;80.25
25945;SHT31;13742;49.306;8.636;2023-05-23T01:54:51;18.63;80.29
25945;SHT31;13742;49.306;8.636;2023-05-23T01:55:51;18.60;80.12
25945;SHT31;13742;49.306;8.636;2023-05-23T01:56:51;18.59;80.18
25945;SHT31;13742;49.306;8.636;2023-05-23T01:57:54;18.56;80.85
25945;SHT31;13742;49.306;8.636;2023-05-23T01:58:50;18.46;81.18
25945;SHT31;13742;49.306;8.636;2023-05-23T01:59:50;18.45;81.48
25945;SHT31;13742;49.306;8.636;2023-05-23T02:00:50;18.42;81.29
25945;SHT31;13742;49.306;8.636;2023-05-23T02:01:50;18.41;81.60
25945;SHT31;13742;49.306;8.636;2023-05-23T02:02:50;18.42;81.44
25945;SHT31;13742;49.306;8.636;2023-05-23T02:03:50;18.42;81.26
25945;SHT31;13742;49.306;8.636;2023-05-23T02:04:50;18.44;80.99
25945;SHT31;13742;49.306;8.636;2023-05-23T02:05:50;18.42;81.09
25945;SHT31;13742;49.306;8.636;2023-05-23T02:06:50;18.39;81.46
25945;SHT31;13742;49.306;8.636;2023-05-23T02:07:50;18.44;81.16
25945;SHT31;13742;49.306;8.636;2023-05-23T02:08:51;18.41;81.17
25945;SHT31;13742;49.306;8.636;2023-05-23T02:09:50;18.42;80.98
25945;SHT31;13742;49.306;8.636;2023-05-23T02:10:50;18.42;80.64
25945;SHT31;13742;49.306;8.636;2023-05-23T02:11:50;18.44;80.47
25945;SHT31;13742;49.306;8.636;2023-05-23T02:12:50;18.45;80.36
25945;SHT31;13742;49.306;8.636;2023-05-23T02:13:50;18.44;80.18
25945;SHT31;13742;49.306;8.636;2023-05-23T02:14:52;18.45;80.23
25945;SHT31;13742;49.306;8.636;2023-05-23T02:15:50;18.45;80.19
25945;SHT31;13742;49.306;8.636;2023-05-23T02:16:52;18.46;80.19
25945;SHT31;13742;49.306;8.636;2023-05-23T02:17:50;18.44;80.14
25945;SHT31;13742;49.306;8.636;2023-05-23T02:18:51;18.44;80.34
25945;SHT31;13742;49.306;8.636;2023-05-23T02:19:51;18.44;80.16
25945;SHT31;13742;49.306;8.636;2023-05-23T02:20:51;18.45;79.86
25945;SHT31;13742;49.306;8.636;2023-05-23T02:21:50;18.48;79.79
25945;SHT31;13742;49.306;8.636;2023-05-23T02:22:50;18.45;79.85
25945;SHT31;13742;49.306;8.636;2023-05-23T02:23:50;18.46;79.82
25945;SHT31;13742;49.306;8.636;2023-05-23T02:24:51;18.46;79.79
25945;SHT31;13742;49.306;8.636;2023-05-23T02:25:50;18.46;79.74
25945;SHT31;13742;49.306;8.636;2023-05-23T02:26:52;18.48;79.51
25945;SHT31;13742;49.306;8.636;2023-05-23T02:27:50;18.46;79.50
25945;SHT31;13742;49.306;8.636;2023-05-23T02:28:50;18.48;79.56
25945;SHT31;13742;49.306;8.636;2023-05-23T02:29:50;18.46;79.84
25945;SHT31;13742;49.306;8.636;2023-05-23T02:30:50;18.46;79.78
25945;SHT31;13742;49.306;8.636;2023-05-23T02:31:50;18.46;80.22
25945;SHT31;13742;49.306;8.636;2023-05-23T02:32:50;18.44;80.25
25945;SHT31;13742;49.306;8.636;2023-05-23T02:33:51;18.48;80.48
25945;SHT31;13742;49.306;8.636;2023-05-23T02:34:51;18.45;80.11
25945;SHT31;13742;49.306;8.636;2023-05-23T02:35:50;18.42;80.22
25945;SHT31;13742;49.306;8.636;2023-05-23T02:36:50;18.39;80.70
25945;SHT31;13742;49.306;8.636;2023-05-23T02:37:50;18.39;80.84
25945;SHT31;13742;49.306;8.636;2023-05-23T02:38:50;18.31;81.19
25945;SHT31;13742;49.306;8.636;2023-05-23T02:39:50;18.28;80.96
25945;SHT31;13742;49.306;8.636;2023-05-23T02:40:52;18.33;81.18
25945;SHT31;13742;49.306;8.636;2023-05-23T02:41:50;18.32;80.98
25945;SHT31;13742;49.306;8.636;2023-05-23T02:42:50;18.33;80.55
25945;SHT31;13742;49.306;8.636;2023-05-23T02:43:50;18.29;80.81
25945;SHT31;13742;49.306;8.636;2023-05-23T02:44:50;18.28;80.64
25945;SHT31;13742;49.306;8.636;2023-05-23T02:45:50;18.28;80.46
25945;SHT31;13742;49.306;8.636;2023-05-23T02:46:50;18.29;80.31
25945;SHT31;13742;49.306;8.636;2023-05-23T02:47:50;18.29;80.77
25945;SHT31;13742;49.306;8.636;2023-05-23T02:48:50;18.28;81.43
25945;SHT31;13742;49.306;8.636;2023-05-23T02:49:50;18.25;81.59
25945;SHT31;13742;49.306;8.636;2023-05-23T02:50:51;18.24;81.39
25945;SHT31;13742;49.306;8.636;2023-05-23T02:51:50;18.21;81.50
25945;SHT31;13742;49.306;8.636;2023-05-23T02:52:50;18.22;81.47
25945;SHT31;13742;49.306;8.636;2023-05-23T02:53:50;18.22;81.50
25945;SHT31;13742;49.306;8.636;2023-05-23T02:54:50;18.21;81.61
25945;SHT31;13742;49.306;8.636;2023-05-23T02:55:50;18.14;81.80
25945;SHT31;13742;49.306;8.636;2023-05-23T02:56:52;18.15;81.53
25945;SHT31;13742;49.306;8.636;2023-05-23T02:57:51;18.18;81.57
25945;SHT31;13742;49.306;8.636;2023-05-23T02:58:52;18.17;81.35
25945;SHT31;13742;49.306;8.636;2023-05-23T02:59:50;18.12;81.67
25945;SHT31;13742;49.306;8.636;2023-05-23T03:00:51;18.12;81.76
25945;SHT31;13742;49.306;8.636;2023-05-23T03:01:50;18.11;81.20
25945;SHT31;13742;49.306;8.636;2023-05-23T03:02:55;18.08;81.82
25945;SHT31;13742;49.306;8.636;2023-05-23T03:03:50;18.07;81.46
25945;SHT31;13742;49.306;8.636;2023-05-23T03:04:50;18.07;81.06
25945;SHT31;13742;49.306;8.636;2023-05-23T03:05:51;18.08;81.30
25945;SHT31;13742;49.306;8.636;2023-05-23T03:06:53;18.05;81.23
25945;SHT31;13742;49.306;8.636;2023-05-23T03:07:53;18.07;81.60
25945;SHT31;13742;49.306;8.636;2023-05-23T03:08:50;18.04;81.53
25945;SHT31;13742;49.306;8.636;2023-05-23T03:09:51;18.05;81.14
25945;SHT31;13742;49.306;8.636;2023-05-23T03:10:51;18.03;81.61
25945;SHT31;13742;49.306;8.636;2023-05-23T03:11:50;18.05;81.47
25945;SHT31;13742;49.306;8.636;2023-05-23T03:12:50;18.01;82.01
25945;SHT31;13742;49.306;8.636;2023-05-23T03:13:50;18.00;82.07
25945;SHT31;13742;49.306;8.636;2023-05-23T03:14:50;18.00;82.22
25945;SHT31;13742;49.306;8.636;2023-05-23T03:15:50;17.91;82.72
25945;SHT31;13742;49.306;8.636;2023-05-23T03:16:50;17.91;82.71
25945;SHT31;13742;49.306;8.636;2023-05-23T03:17:50;17.88;82.69
25945;SHT31;13742;49.306;8.636;2023-05-23T03:18:50;17.83;82.74
25945;SHT31;13742;49.306;8.636;2023-05-23T03:19:50;17.77;82.96
25945;SHT31;13742;49.306;8.636;2023-05-23T03:20:50;17.81;82.82
25945;SHT31;13742;49.306;8.636;2023-05-23T03:21:51;17.77;82.73
25945;SHT31;13742;49.306;8.636;2023-05-23T03:22:50;17.74;83.03
25945;SHT31;13742;49.306;8.636;2023-05-23T03:23:50;17.69;83.27
25945;SHT31;13742;49.306;8.636;2023-05-23T03:24:50;17.70;83.34
25945;SHT31;13742;49.306;8.636;2023-05-23T03:25:50;17.65;83.49
25945;SHT31;13742;49.306;8.636;2023-05-23T03:26:50;17.62;83.65
25945;SHT31;13742;49.306;8.636;2023-05-23T03:27:50;17.59;83.45
25945;SHT31;13742;49.306;8.636;2023-05-23T03:28:51;17.60;83.56
25945;SHT31;13742;49.306;8.636;2023-05-23T03:29:51;17.63;83.58
25945;SHT31;13742;49.306;8.636;2023-05-23T03:30:50;17.60;83.62
25945;SHT31;13742;49.306;8.636;2023-05-23T03:31:50;17.57;83.87
25945;SHT31;13742;49.306;8.636;2023-05-23T03:32:50;17.57;83.88
25945;SHT31;13742;49.306;8.636;2023-05-23T03:33:51;17.42;84.59
25945;SHT31;13742;49.306;8.636;2023-05-23T03:34:51;17.38;84.57
25945;SHT31;13742;49.306;8.636;2023-05-23T03:35:52;17.43;84.61
25945;SHT31;13742;49.306;8.636;2023-05-23T03:36:51;17.46;84.41
25945;SHT31;13742;49.306;8.636;2023-05-23T03:37:50;17.48;84.32
25945;SHT31;13742;49.306;8.636;2023-05-23T03:38:51;17.46;84.23
25945;SHT31;13742;49.306;8.636;2023-05-23T03:39:50;17.42;84.78
25945;SHT31;13742;49.306;8.636;2023-05-23T03:40:50;17.45;84.83
25945;SHT31;13742;49.306;8.636;2023-05-23T03:41:50;17.50;84.58
25945;SHT31;13742;49.306;8.636;2023-05-23T03:43:50;17.53;84.34
25945;SHT31;13742;49.306;8.636;2023-05-23T03:44:50;17.53;84.57
25945;SHT31;13742;49.306;8.636;2023-05-23T03:45:50;17.53;84.83
25945;SHT31;13742;49.306;8.636;2023-05-23T03:46:51;17.50;84.79
25945;SHT31;13742;49.306;8.636;2023-05-23T03:47:50;17.53;84.54
25945;SHT31;13742;49.306;8.636;2023-05-23T03:48:51;17.54;84.87
25945;SHT31;13742;49.306;8.636;2023-05-23T03:49:50;17.57;84.26
25945;SHT31;13742;49.306;8.636;2023-05-23T03:50:50;17.59;84.01
25945;SHT31;13742;49.306;8.636;2023-05-23T03:51:50;17.59;83.88
25945;SHT31;13742;49.306;8.636;2023-05-23T03:52:51;17.62;83.87
25945;SHT31;13742;49.306;8.636;2023-05-23T03:53:50;17.62;83.90
25945;SHT31;13742;49.306;8.636;2023-05-23T03:54:50;17.60;83.69
25945;SHT31;13742;49.306;8.636;2023-05-23T03:55:53;17.63;83.27
25945;SHT31;13742;49.306;8.636;2023-05-23T03:56:50;17.67;83.94
25945;SHT31;13742;49.306;8.636;2023-05-23T03:57:53;17.72;83.66
25945;SHT31;13742;49.306;8.636;2023-05-23T03:58:50;17.74;83.35
25945;SHT31;13742;49.306;8.636;2023-05-23T03:59:51;17.73;83.09
25945;SHT31;13742;49.306;8.636;2023-05-23T04:00:52;17.76;82.89
25945;SHT31;13742;49.306;8.636;2023-05-23T04:01:50;17.81;82.78
25945;SHT31;13742;49.306;8.636;2023-05-23T04:02:51;17.84;83.25
25945;SHT31;13742;49.306;8.636;2023-05-23T04:03:51;17.87;82.69
25945;SHT31;13742;49.306;8.636;2023-05-23T04:04:53;17.90;83.40
25945;SHT31;13742;49.306;8.636;2023-05-23T04:05:50;17.93;82.93
25945;SHT31;13742;49.306;8.636;2023-05-23T04:06:50;17.93;83.18
25945;SHT31;13742;49.306;8.636;2023-05-23T04:07:51;17.91;83.05
25945;SHT31;13742;49.306;8.636;2023-05-23T04:08:50;17.86;83.26
25945;SHT31;13742;49.306;8.636;2023-05-23T04:09:50;17.90;82.92
25945;SHT31;13742;49.306;8.636;2023-05-23T04:10:50;17.91;82.86
25945;SHT31;13742;49.306;8.636;2023-05-23T04:11:50;17.90;82.98
25945;SHT31;13742;49.306;8.636;2023-05-23T04:12:50;17.94;82.77
25945;SHT31;13742;49.306;8.636;2023-05-23T04:13:51;17.88;83.29
25945;SHT31;13742;49.306;8.636;2023-05-23T04:14:51;17.94;82.96
25945;SHT31;13742;49.306;8.636;2023-05-23T04:15:51;17.93;83.24
25945;SHT31;13742;49.306;8.636;2023-05-23T04:16:50;17.90;82.99
25945;SHT31;13742;49.306;8.636;2023-05-23T04:17:50;17.90;83.13
25945;SHT31;13742;49.306;8.636;2023-05-23T04:18:50;17.91;83.21
25945;SHT31;13742;49.306;8.636;2023-05-23T04:19:51;17.90;83.11
25945;SHT31;13742;49.306;8.636;2023-05-23T04:20:50;17.81;83.35
25945;SHT31;13742;49.306;8.636;2023-05-23T04:21:50;17.79;83.36
25945;SHT31;13742;49.306;8.636;2023-05-23T04:22:50;17.79;83.07
25945;SHT31;13742;49.306;8.636;2023-05-23T04:23:50;17.72;83.62
25945;SHT31;13742;49.306;8.636;2023-05-23T04:24:50;17.65;83.76
25945;SHT31;13742;49.306;8.636;2023-05-23T04:25:51;17.56;83.93
25945;SHT31;13742;49.306;8.636;2023-05-23T04:26:50;17.65;83.55
25945;SHT31;13742;49.306;8.636;2023-05-23T04:27:51;17.66;83.54
25945;SHT31;13742;49.306;8.636;2023-05-23T04:28:53;17.59;83.69
25945;SHT31;13742;49.306;8.636;2023-05-23T04:29:51;17.53;83.66
25945;SHT31;13742;49.306;8.636;2023-05-23T04:30:50;17.42;83.44
25945;SHT31;13742;49.306;8.636;2023-05-23T04:31:50;17.43;83.41
25945;SHT31;13742;49.306;8.636;2023-05-23T04:32:51;17.40;83.53
25945;SHT31;13742;49.306;8.636;2023-05-23T04:33:51;17.36;83.51
25945;SHT31;13742;49.306;8.636;2023-05-23T04:34:51;17.33;83.11
25945;SHT31;13742;49.306;8.636;2023-05-23T04:35:50;17.42;83.04
25945;SHT31;13742;49.306;8.636;2023-05-23T04:36:52;17.40;82.96
25945;SHT31;13742;49.306;8.636;2023-05-23T04:37:55;17.38;82.97
25945;SHT31;13742;49.306;8.636;2023-05-23T04:38:50;17.38;82.88
25945;SHT31;13742;49.306;8.636;2023-05-23T04:39:51;17.39;82.60
25945;SHT31;13742;49.306;8.636;2023-05-23T04:40:52;17.35;82.60
25945;SHT31;13742;49.306;8.636;2023-05-23T04:41:50;17.36;82.55
25945;SHT31;13742;49.306;8.636;2023-05-23T04:42:50;17.32;82.58
25945;SHT31;13742;49.306;8.636;2023-05-23T04:43:53;17.26;82.34
25945;SHT31;13742;49.306;8.636;2023-05-23T04:44:52;17.26;82.38
25945;SHT31;13742;49.306;8.636;2023-05-23T04:45:53;17.32;82.55
25945;SHT31;13742;49.306;8.636;2023-05-23T04:46:50;17.39;82.13
25945;SHT31;13742;49.306;8.636;2023-05-23T04:47:53;17.33;82.13
25945;SHT31;13742;49.306;8.636;2023-05-23T04:48:51;17.38;82.08
25945;SHT31;13742;49.306;8.636;2023-05-23T04:49:54;17.39;82.04
25945;SHT31;13742;49.306;8.636;2023-05-23T04:50:51;17.45;81.96
25945;SHT31;13742;49.306;8.636;2023-05-23T04:51:50;17.48;81.82
25945;SHT31;13742;49.306;8.636;2023-05-23T04:52:50;17.46;81.89
25945;SHT31;13742;49.306;8.636;2023-05-23T04:53:51;17.43;81.82
25945;SHT31;13742;49.306;8.636;2023-05-23T04:54:53;17.45;81.82
25945;SHT31;13742;49.306;8.636;2023-05-23T04:55:50;17.48;81.57
25945;SHT31;13742;49.306;8.636;2023-05-23T04:56:50;17.49;81.65
25945;SHT31;13742;49.306;8.636;2023-05-23T04:57:50;17.50;81.57
25945;SHT31;13742;49.306;8.636;2023-05-23T04:58:50;17.49;81.65
25945;SHT31;13742;49.306;8.636;2023-05-23T04:59:50;17.46;81.61
25945;SHT31;13742;49.306;8.636;2023-05-23T05:00:50;17.49;81.47
25945;SHT31;13742;49.306;8.636;2023-05-23T05:01:50;17.50;81.84
25945;SHT31;13742;49.306;8.636;2023-05-23T05:02:50;17.49;81.73
25945;SHT31;13742;49.306;8.636;2023-05-23T05:03:51;17.48;81.81
25945;SHT31;13742;49.306;8.636;2023-05-23T05:04:50;17.48;81.63
25945;SHT31;13742;49.306;8.636;2023-05-23T05:05:51;17.49;81.58
25945;SHT31;13742;49.306;8.636;2023-05-23T05:06:51;17.52;81.47
25945;SHT31;13742;49.306;8.636;2023-05-23T05:07:50;17.52;81.53
25945;SHT31;13742;49.306;8.636;2023-05-23T05:08:50;17.54;81.66
25945;SHT31;13742;49.306;8.636;2023-05-23T05:09:50;17.56;81.43
25945;SHT31;13742;49.306;8.636;2023-05-23T05:10:55;17.59;81.43
25945;SHT31;13742;49.306;8.636;2023-05-23T05:11:50;17.54;81.13
25945;SHT31;13742;49.306;8.636;2023-05-23T05:12:50;17.56;80.59
25945;SHT31;13742;49.306;8.636;2023-05-23T05:13:50;17.57;80.81
25945;SHT31;13742;49.306;8.636;2023-05-23T05:14:50;17.56;80.64
25945;SHT31;13742;49.306;8.636;2023-05-23T05:15:51;17.54;80.69
25945;SHT31;13742;49.306;8.636;2023-05-23T05:16:50;17.52;80.60
25945;SHT31;13742;49.306;8.636;2023-05-23T05:17:50;17.57;80.24
25945;SHT31;13742;49.306;8.636;2023-05-23T05:18:50;17.49;79.43
25945;SHT31;13742;49.306;8.636;2023-05-23T05:19:50;17.49;79.21
25945;SHT31;13742;49.306;8.636;2023-05-23T05:20:50;17.48;79.33
25945;SHT31;13742;49.306;8.636;2023-05-23T05:21:51;17.50;79.71
25945;SHT31;13742;49.306;8.636;2023-05-23T05:22:56;17.45;78.33
25945;SHT31;13742;49.306;8.636;2023-05-23T05:23:51;17.50;78.62
25945;SHT31;13742;49.306;8.636;2023-05-23T05:24:50;17.40;78.71
25945;SHT31;13742;49.306;8.636;2023-05-23T05:25:50;17.38;78.71
25945;SHT31;13742;49.306;8.636;2023-05-23T05:26:50;17.39;78.38
25945;SHT31;13742;49.306;8.636;2023-05-23T05:27:51;17.43;78.32
25945;SHT31;13742;49.306;8.636;2023-05-23T05:28:50;17.39;78.14
25945;SHT31;13742;49.306;8.636;2023-05-23T05:29:52;17.39;78.04
25945;SHT31;13742;49.306;8.636;2023-05-23T05:30:53;17.35;78.03
25945;SHT31;13742;49.306;8.636;2023-05-23T05:31:51;17.30;78.43
25945;SHT31;13742;49.306;8.636;2023-05-23T05:32:50;17.35;78.44
25945;SHT31;13742;49.306;8.636;2023-05-23T05:33:50;17.39;78.30
25945;SHT31;13742;49.306;8.636;2023-05-23T05:34:50;17.36;78.25
25945;SHT31;13742;49.306;8.636;2023-05-23T05:35:50;17.36;78.01
25945;SHT31;13742;49.306;8.636;2023-05-23T05:36:54;17.40;78.21
25945;SHT31;13742;49.306;8.636;2023-05-23T05:37:50;17.40;77.79
25945;SHT31;13742;49.306;8.636;2023-05-23T05:38:50;17.40;77.78
25945;SHT31;13742;49.306;8.636;2023-05-23T05:39:50;17.43;77.77
25945;SHT31;13742;49.306;8.636;2023-05-23T05:40:50;17.40;77.64
25945;SHT31;13742;49.306;8.636;2023-05-23T05:41:50;17.39;77.74
25945;SHT31;13742;49.306;8.636;2023-05-23T05:42:50;17.35;77.87
25945;SHT31;13742;49.306;8.636;2023-05-23T05:43:50;17.40;77.84
25945;SHT31;13742;49.306;8.636;2023-05-23T05:44:50;17.38;77.32
25945;SHT31;13742;49.306;8.636;2023-05-23T05:45:50;17.36;77.44
25945;SHT31;13742;49.306;8.636;2023-05-23T05:46:50;17.25;77.25
25945;SHT31;13742;49.306;8.636;2023-05-23T05:47:50;17.26;77.17
25945;SHT31;13742;49.306;8.636;2023-05-23T05:48:50;17.25;77.61
25945;SHT31;13742;49.306;8.636;2023-05-23T05:49:50;17.35;77.40
25945;SHT31;13742;49.306;8.636;2023-05-23T05:50:50;17.29;77.30
25945;SHT31;13742;49.306;8.636;2023-05-23T05:51:50;17.30;77.48
25945;SHT31;13742;49.306;8.636;2023-05-23T05:52:50;17.32;77.06
25945;SHT31;13742;49.306;8.636;2023-05-23T05:53:50;17.29;76.68
25945;SHT31;13742;49.306;8.636;2023-05-23T05:54:50;17.29;76.68
25945;SHT31;13742;49.306;8.636;2023-05-23T05:55:50;17.35;76.46
25945;SHT31;13742;49.306;8.636;2023-05-23T05:56:50;17.33;76.10
25945;SHT31;13742;49.306;8.636;2023-05-23T05:57:50;17.32;76.25
25945;SHT31;13742;49.306;8.636;2023-05-23T05:58:50;17.33;76.27
25945;SHT31;13742;49.306;8.636;2023-05-23T05:59:51;17.32;76.06
25945;SHT31;13742;49.306;8.636;2023-05-23T06:00:50;17.30;76.05
25945;SHT31;13742;49.306;8.636;2023-05-23T06:01:51;17.28;75.93
25945;SHT31;13742;49.306;8.636;2023-05-23T06:02:51;17.33;75.98
25945;SHT31;13742;49.306;8.636;2023-05-23T06:03:50;17.32;75.71
25945;SHT31;13742;49.306;8.636;2023-05-23T06:04:50;17.33;75.51
25945;SHT31;13742;49.306;8.636;2023-05-23T06:05:50;17.38;75.79
25945;SHT31;13742;49.306;8.636;2023-05-23T06:06:50;17.42;75.82
25945;SHT31;13742;49.306;8.636;2023-05-23T06:07:51;17.39;75.59
25945;SHT31;13742;49.306;8.636;2023-05-23T06:08:50;17.45;75.90
25945;SHT31;13742;49.306;8.636;2023-05-23T06:09:50;17.46;75.56
25945;SHT31;13742;49.306;8.636;2023-05-23T06:10:50;17.49;75.74
25945;SHT31;13742;49.306;8.636;2023-05-23T06:11:50;17.53;75.75
25945;SHT31;13742;49.306;8.636;2023-05-23T06:12:50;17.56;75.41
25945;SHT31;13742;49.306;8.636;2023-05-23T06:13:50;17.54;75.07
25945;SHT31;13742;49.306;8.636;2023-05-23T06:14:50;17.59;75.13
25945;SHT31;13742;49.306;8.636;2023-05-23T06:15:50;17.46;74.81
25945;SHT31;13742;49.306;8.636;2023-05-23T06:16:50;17.43;74.84
25945;SHT31;13742;49.306;8.636;2023-05-23T06:17:51;17.39;74.54
25945;SHT31;13742;49.306;8.636;2023-05-23T06:18:50;17.35;74.67
25945;SHT31;13742;49.306;8.636;2023-05-23T06:19:50;17.39;74.94
25945;SHT31;13742;49.306;8.636;2023-05-23T06:20:50;17.35;74.66
25945;SHT31;13742;49.306;8.636;2023-05-23T06:21:50;17.33;74.70
25945;SHT31;13742;49.306;8.636;2023-05-23T06:22:50;17.21;74.80
25945;SHT31;13742;49.306;8.636;2023-05-23T06:23:51;17.22;75.19
25945;SHT31;13742;49.306;8.636;2023-05-23T06:24:50;17.28;75.14
25945;SHT31;13742;49.306;8.636;2023-05-23T06:25:50;17.28;75.24
25945;SHT31;13742;49.306;8.636;2023-05-23T06:26:50;17.22;74.74